createdAt,value
2022-11-21T00:01:19.253Z,59.80
2022-11-21T00:03:47.307Z,56.93
2022-11-21T00:06:15.456Z,58.03
2022-11-21T00:08:44.803Z,60.87
2022-11-21T00:11:13.284Z,57.80
2022-11-21T00:13:42.053Z,63.57
2022-11-21T00:16:12.865Z,58.80
2022-11-21T00:18:41.697Z,53.63
2022-11-21T00:21:12.977Z,53.80
2022-11-21T00:23:40.977Z,55.37
2022-11-21T00:26:12.505Z,55.87
2022-11-21T00:28:40.695Z,46.60
2022-11-21T00:31:08.938Z,53.73
2022-11-21T00:33:39.028Z,53.07
2022-11-21T00:36:08.610Z,52.27
2022-11-21T00:38:37.161Z,50.20
2022-11-21T00:41:05.243Z,50.80
2022-11-21T00:43:35.180Z,49.97
2022-11-21T00:46:04.289Z,51.67
2022-11-21T00:48:33.291Z,53.73
2022-11-21T00:51:01.998Z,54.27
2022-11-21T00:53:30.917Z,56.53
2022-11-21T00:55:59.476Z,56.57
2022-11-21T00:58:27.800Z,58.17
2022-11-21T01:01:06.137Z,58.50
2022-11-21T01:03:35.408Z,54.30
2022-11-21T01:06:05.499Z,57.87
2022-11-21T01:08:33.579Z,56.57
2022-11-21T01:11:04.519Z,52.10
2022-11-21T01:13:32.596Z,50.20
2022-11-21T01:16:05.911Z,48.77
2022-11-21T01:18:33.886Z,50.37
2022-11-21T01:21:02.117Z,50.77
2022-11-21T01:23:30.618Z,46.07
2022-11-21T01:26:02.823Z,52.17
2022-11-21T01:28:30.764Z,45.90
2022-11-21T01:31:06.180Z,47.73
2022-11-21T01:33:34.852Z,50.87
2022-11-21T01:36:11.152Z,49.10
2022-11-21T01:38:39.411Z,50.90
2022-11-21T01:41:07.535Z,49.13
2022-11-21T01:43:35.554Z,50.97
2022-11-21T01:46:11.680Z,51.93
2022-11-21T01:48:44.192Z,51.10
2022-11-21T01:51:16.682Z,53.10
2022-11-21T01:53:49.826Z,57.17
2022-11-21T01:56:18.037Z,57.90
2022-11-21T01:58:48.337Z,63.07
2022-11-21T02:01:17.859Z,60.87
2022-11-21T02:03:47.673Z,62.50
2022-11-21T02:06:15.805Z,61.33
2022-11-21T02:08:45.454Z,61.30
2022-11-21T02:11:21.567Z,59.63
2022-11-21T02:13:49.504Z,61.53
2022-11-21T02:16:18.823Z,61.03
2022-11-21T02:18:46.851Z,63.63
2022-11-21T02:21:22.348Z,64.60
2022-11-21T02:24:00.050Z,62.40
2022-11-21T02:26:30.307Z,61.97
2022-11-21T02:28:59.130Z,59.40
2022-11-21T02:31:27.174Z,61.67
2022-11-21T02:33:55.188Z,57.53
2022-11-21T02:36:38.889Z,60.97
2022-11-21T02:39:09.090Z,59.67
2022-11-21T02:41:43.839Z,62.13
2022-11-21T02:44:21.134Z,59.77
2022-11-21T02:46:51.218Z,60.47
2022-11-21T02:49:26.912Z,57.50
2022-11-21T02:51:54.902Z,64.23
2022-11-21T02:54:22.876Z,65.10
2022-11-21T02:56:52.200Z,62.53
2022-11-21T02:59:20.172Z,66.80
2022-11-21T03:01:48.152Z,56.37
2022-11-21T03:04:16.132Z,57.43
2022-11-21T03:06:44.132Z,59.27
2022-11-21T03:09:12.762Z,62.07
2022-11-21T03:11:40.738Z,65.83
2022-11-21T03:14:10.117Z,59.37
2022-11-21T03:16:38.090Z,57.63
2022-11-21T03:19:06.047Z,57.27
2022-11-21T03:21:34.032Z,60.10
2022-11-21T03:24:01.975Z,61.87
2022-11-21T03:26:29.950Z,58.50
2022-11-21T03:28:57.933Z,68.00
2022-11-21T03:31:27.261Z,58.83
2022-11-21T03:33:55.233Z,57.33
2022-11-21T03:36:23.185Z,59.57
2022-11-21T03:38:51.154Z,58.37
2022-11-21T03:41:30.909Z,61.47
2022-11-21T03:43:59.662Z,56.17
2022-11-21T03:46:29.339Z,62.37
2022-11-21T03:48:57.497Z,59.47
2022-11-21T03:51:25.952Z,54.10
2022-11-21T03:53:54.264Z,58.80
2022-11-21T03:56:22.423Z,58.17
2022-11-21T03:58:50.567Z,57.07
2022-11-21T04:01:18.656Z,59.07
2022-11-21T04:03:48.397Z,61.17
2022-11-21T04:06:18.249Z,54.77
2022-11-21T04:08:46.556Z,57.37
2022-11-21T04:11:14.704Z,56.60
2022-11-21T04:13:42.907Z,65.87
2022-11-21T04:16:11.135Z,58.50
2022-11-21T04:18:39.129Z,54.77
2022-11-21T04:21:09.157Z,57.80
2022-11-21T04:23:37.231Z,55.40
2022-11-21T04:26:05.564Z,56.43
2022-11-21T04:28:33.534Z,49.30
2022-11-21T04:31:10.028Z,55.23
2022-11-21T04:33:39.319Z,53.37
2022-11-21T04:36:09.794Z,52.37
2022-11-21T04:38:38.259Z,65.60
2022-11-21T04:41:06.210Z,58.83
2022-11-21T04:43:34.197Z,86.73
2022-11-21T04:46:02.212Z,87.37
2022-11-21T04:48:30.218Z,87.47
2022-11-21T04:50:58.165Z,89.47
2022-11-21T04:53:27.533Z,79.17
2022-11-21T04:55:55.502Z,67.63
2022-11-21T04:58:23.493Z,58.67
2022-11-21T05:00:51.589Z,57.13
2022-11-21T05:03:19.624Z,56.13
2022-11-21T05:05:47.814Z,56.57
2022-11-21T05:08:15.838Z,57.30
2022-11-21T05:11:03.322Z,54.30
2022-11-21T05:13:31.325Z,50.33
2022-11-21T05:15:59.306Z,56.60
2022-11-21T05:18:27.357Z,60.23
2022-11-21T05:20:55.361Z,52.93
2022-11-21T05:23:23.338Z,57.53
2022-11-21T05:25:52.661Z,58.80
2022-11-21T05:28:20.657Z,63.73
2022-11-21T05:30:48.610Z,57.07
2022-11-21T05:33:16.587Z,62.33
2022-11-21T05:35:44.645Z,76.83
2022-11-21T05:38:12.671Z,75.17
2022-11-21T05:40:40.657Z,78.30
2022-11-21T05:43:29.654Z,84.27
2022-11-21T05:45:57.624Z,87.67
2022-11-21T05:48:25.628Z,84.03
2022-11-21T05:50:53.775Z,95.17
2022-11-21T05:53:22.023Z,89.20
2022-11-21T05:55:49.982Z,92.23
2022-11-21T05:58:19.323Z,95.23
2022-11-21T06:00:47.403Z,96.33
2022-11-21T06:03:30.947Z,105.13
2022-11-21T06:06:05.001Z,94.67
2022-11-21T06:08:36.165Z,104.10
2022-11-21T06:11:05.533Z,97.73
2022-11-21T06:13:35.460Z,98.63
2022-11-21T06:16:05.592Z,102.87
2022-11-21T06:18:35.353Z,98.67
2022-11-21T06:21:04.597Z,97.97
2022-11-21T06:23:32.834Z,108.50
2022-11-21T06:26:02.178Z,101.10
2022-11-21T06:28:33.654Z,101.77
2022-11-21T06:31:05.753Z,104.57
2022-11-21T06:33:34.076Z,96.73
2022-11-21T06:36:04.112Z,100.90
2022-11-21T06:38:32.122Z,112.73
2022-11-21T06:41:00.239Z,112.90
2022-11-21T06:43:28.883Z,102.13
2022-11-21T06:45:58.812Z,100.30
2022-11-21T06:48:28.143Z,102.80
2022-11-21T06:50:56.092Z,98.43
2022-11-21T06:53:24.065Z,102.13
2022-11-21T06:55:52.042Z,106.20
2022-11-21T06:58:20.032Z,102.03
2022-11-21T07:00:48.784Z,107.60
2022-11-21T07:03:18.377Z,106.07
2022-11-21T07:05:47.756Z,105.87
2022-11-21T07:08:16.023Z,110.20
2022-11-21T07:11:03.454Z,105.30
2022-11-21T07:13:32.543Z,109.97
2022-11-21T07:16:04.628Z,106.50
2022-11-21T07:18:32.649Z,101.67
2022-11-21T07:21:03.322Z,101.07
2022-11-21T07:23:32.454Z,99.63
2022-11-21T07:26:02.101Z,99.40
2022-11-21T07:28:30.345Z,99.00
2022-11-21T07:30:58.594Z,98.60
2022-11-21T07:33:26.887Z,101.77
2022-11-21T07:35:56.925Z,108.57
2022-11-21T07:38:26.608Z,100.73
2022-11-21T07:40:54.730Z,97.80
2022-11-21T07:43:22.698Z,87.73
2022-11-21T07:45:50.671Z,97.07
2022-11-21T07:48:18.697Z,89.07
2022-11-21T07:50:46.674Z,91.07
2022-11-21T07:53:14.687Z,94.97
2022-11-21T07:55:44.060Z,89.57
2022-11-21T07:58:14.516Z,80.97
2022-11-21T08:00:43.734Z,84.97
2022-11-21T08:03:13.030Z,80.13
2022-11-21T08:05:42.643Z,78.37
2022-11-21T08:08:11.751Z,75.23
2022-11-21T08:10:41.512Z,79.63
2022-11-21T08:13:11.477Z,83.50
2022-11-21T08:15:39.499Z,86.27
2022-11-21T08:18:11.307Z,78.93
2022-11-21T08:20:39.600Z,81.77
2022-11-21T08:23:08.284Z,83.17
2022-11-21T08:25:38.644Z,73.27
2022-11-21T08:28:07.247Z,76.70
2022-11-21T08:30:37.476Z,73.77
2022-11-21T08:33:06.742Z,72.10
2022-11-21T08:35:37.652Z,69.40
2022-11-21T08:38:05.994Z,67.47
2022-11-21T08:40:34.631Z,76.00
2022-11-21T08:43:04.116Z,63.57
2022-11-21T08:45:32.723Z,66.53
2022-11-21T08:48:02.709Z,72.87
2022-11-21T08:50:32.080Z,66.90
2022-11-21T08:53:03.785Z,65.33
2022-11-21T08:55:32.177Z,62.90
2022-11-21T08:58:00.313Z,62.50
2022-11-21T09:00:28.272Z,70.10
2022-11-21T09:02:56.290Z,68.03
2022-11-21T09:05:25.719Z,64.53
2022-11-21T09:07:58.275Z,64.47
2022-11-21T09:10:26.658Z,61.57
2022-11-21T09:12:54.703Z,62.97
2022-11-21T09:15:40.143Z,59.40
2022-11-21T09:18:08.502Z,64.10
2022-11-21T09:20:42.689Z,68.67
2022-11-21T09:23:12.653Z,62.57
2022-11-21T09:25:40.720Z,63.90
2022-11-21T09:28:10.029Z,72.83
2022-11-21T09:30:38.691Z,55.43
2022-11-21T09:33:08.308Z,51.03
2022-11-21T09:35:36.408Z,45.50
2022-11-21T09:38:06.173Z,42.93
2022-11-21T09:40:36.042Z,45.63
2022-11-21T09:43:26.532Z,45.60
2022-11-21T09:46:01.246Z,43.73
2022-11-21T09:48:32.715Z,47.13
2022-11-21T09:51:05.502Z,50.87
2022-11-21T09:53:38.589Z,48.00
2022-11-21T09:56:11.300Z,43.00
2022-11-21T09:58:43.517Z,46.37
2022-11-21T10:01:14.221Z,44.20
2022-11-21T10:04:26.607Z,45.43
2022-11-21T10:07:04.063Z,46.37
2022-11-21T10:09:48.178Z,47.53
2022-11-21T10:12:39.835Z,40.57
2022-11-21T10:15:24.682Z,41.90
2022-11-21T10:18:10.957Z,42.77
2022-11-21T10:20:54.376Z,41.00
2022-11-21T10:23:37.728Z,41.20
2022-11-21T10:26:17.545Z,43.07
2022-11-21T10:28:52.380Z,41.10
2022-11-21T10:31:21.038Z,38.83
2022-11-21T10:33:50.658Z,41.07
2022-11-21T10:36:28.431Z,44.87
2022-11-21T10:39:02.212Z,42.20
2022-11-21T10:41:41.404Z,47.50
2022-11-21T10:44:35.521Z,48.83
2022-11-21T10:47:03.877Z,48.00
2022-11-21T10:49:35.374Z,47.80
2022-11-21T10:52:08.514Z,45.73
2022-11-21T10:55:07.795Z,45.77
2022-11-21T10:57:45.347Z,44.47
2022-11-21T11:00:22.947Z,47.90
2022-11-21T11:03:06.443Z,44.27
2022-11-21T11:05:36.631Z,56.57
2022-11-21T11:08:08.424Z,51.27
2022-11-21T11:10:38.152Z,51.10
2022-11-21T11:13:50.932Z,54.13
2022-11-21T11:16:22.717Z,46.73
2022-11-21T11:18:58.218Z,56.70
2022-11-21T11:21:27.707Z,57.13
2022-11-21T11:24:07.559Z,53.07
2022-11-21T11:26:35.746Z,56.00
2022-11-21T11:29:15.642Z,53.17
2022-11-21T11:31:46.000Z,57.07
2022-11-21T11:34:16.008Z,66.07
2022-11-21T11:37:04.048Z,57.87
2022-11-21T11:39:40.352Z,52.73
2022-11-21T11:42:47.640Z,56.83
2022-11-21T11:45:49.478Z,51.97
2022-11-21T11:48:21.134Z,47.17
2022-11-21T11:50:52.593Z,48.80
2022-11-21T11:53:23.259Z,51.77
2022-11-21T11:55:54.452Z,48.73
2022-11-21T11:58:27.951Z,42.33
2022-11-21T12:01:02.528Z,47.13
2022-11-21T12:03:40.068Z,43.77
2022-11-21T12:06:13.724Z,47.70
2022-11-21T12:08:48.836Z,37.50
2022-11-21T12:11:48.490Z,38.13
2022-11-21T12:14:37.822Z,43.03
2022-11-21T12:17:10.683Z,33.33
2022-11-21T12:19:40.025Z,30.67
2022-11-21T12:22:12.263Z,32.83
2022-11-21T12:24:43.216Z,25.90
2022-11-21T12:27:25.114Z,29.43
2022-11-21T12:30:32.925Z,32.37
2022-11-21T12:33:09.188Z,31.07
2022-11-21T12:35:52.005Z,24.10
2022-11-21T12:38:45.135Z,26.80
2022-11-21T12:41:36.120Z,24.43
2022-11-21T12:44:21.380Z,26.37
2022-11-21T12:47:00.562Z,26.50
2022-11-21T12:49:56.313Z,19.20
2022-11-21T12:52:47.643Z,20.00
2022-11-21T12:55:21.133Z,18.20
2022-11-21T12:58:11.558Z,21.33
2022-11-21T13:00:53.836Z,27.37
2022-11-21T13:03:38.969Z,31.03
2022-11-21T13:06:15.960Z,28.93
2022-11-21T13:08:45.694Z,27.37
2022-11-21T13:11:40.585Z,25.27
2022-11-21T13:14:14.733Z,28.00
2022-11-21T13:16:48.440Z,27.30
2022-11-21T13:19:22.636Z,29.40
2022-11-21T13:21:54.328Z,26.20
2022-11-21T13:24:56.332Z,21.93
2022-11-21T13:27:38.489Z,32.63
2022-11-21T13:30:24.664Z,26.53
2022-11-21T13:32:54.924Z,34.37
2022-11-21T13:35:59.582Z,34.17
2022-11-21T13:38:29.170Z,26.10
2022-11-21T13:41:14.847Z,23.60
2022-11-21T13:43:42.853Z,23.10
2022-11-21T13:46:10.862Z,19.77
2022-11-21T13:48:55.615Z,23.57
2022-11-21T13:51:49.829Z,24.33
2022-11-21T13:54:47.206Z,16.70
2022-11-21T13:57:38.851Z,15.70
2022-11-21T14:00:24.708Z,15.80
2022-11-21T14:03:11.985Z,16.17
2022-11-21T14:06:06.410Z,16.77
2022-11-21T14:08:34.968Z,15.90
2022-11-21T14:11:21.714Z,16.80
2022-11-21T14:13:51.296Z,18.47
2022-11-21T14:16:28.264Z,20.00
2022-11-21T14:18:57.238Z,20.03
2022-11-21T14:21:27.713Z,18.63
2022-11-21T14:23:59.244Z,19.03
2022-11-21T14:26:32.028Z,19.77
2022-11-21T14:29:18.621Z,17.60
2022-11-21T14:31:47.539Z,18.73
2022-11-21T14:34:25.681Z,20.37
2022-11-21T14:36:54.524Z,21.20
2022-11-21T14:39:37.211Z,20.70
2022-11-21T14:42:15.064Z,24.90
2022-11-21T14:44:43.427Z,18.97
2022-11-21T14:47:19.900Z,20.63
2022-11-21T14:49:54.298Z,20.50
2022-11-21T14:52:27.198Z,19.00
2022-11-21T14:55:28.442Z,20.63
2022-11-21T14:57:46.993Z,21.57
2022-11-21T15:00:51.173Z,19.27
2022-11-21T15:03:20.935Z,31.40
2022-11-21T15:06:08.273Z,36.80
2022-11-21T15:11:34.089Z,29.37
2022-11-21T15:14:17.023Z,33.53
2022-11-21T15:16:47.284Z,30.13
2022-11-21T15:19:21.894Z,31.67
2022-11-21T15:21:51.422Z,25.13
2022-11-21T15:24:29.446Z,28.57
2022-11-21T15:26:57.843Z,28.60
2022-11-21T15:29:27.902Z,30.20
2022-11-21T15:32:13.992Z,35.00
2022-11-21T15:34:57.269Z,33.57
2022-11-21T15:37:25.451Z,29.00
2022-11-21T15:39:54.586Z,32.27
2022-11-21T15:42:38.626Z,34.23
2022-11-21T15:45:25.893Z,37.37
2022-11-21T15:47:55.508Z,36.13
2022-11-21T15:50:24.873Z,37.30
2022-11-21T15:52:53.773Z,38.33
2022-11-21T15:55:25.354Z,33.37
2022-11-21T15:57:53.353Z,29.27
2022-11-21T16:00:21.560Z,38.30
2022-11-21T16:02:50.955Z,39.60
2022-11-21T16:05:18.943Z,32.07
2022-11-21T16:07:48.424Z,42.00
2022-11-21T16:10:24.345Z,32.17
2022-11-21T16:12:55.428Z,26.87
2022-11-21T16:15:23.636Z,26.47
2022-11-21T16:17:54.016Z,24.73
2022-11-21T16:20:21.998Z,24.57
2022-11-21T16:22:50.165Z,24.10
2022-11-21T16:25:18.246Z,24.53
2022-11-21T16:27:47.259Z,28.03
2022-11-21T16:30:16.050Z,27.33
2022-11-21T16:32:43.991Z,31.53
2022-11-21T16:35:13.308Z,28.33
2022-11-21T16:37:41.315Z,31.23
2022-11-21T16:40:11.264Z,36.93
2022-11-21T16:42:39.236Z,34.70
2022-11-21T16:45:07.700Z,30.80
2022-11-21T16:47:38.160Z,34.93
2022-11-21T16:50:07.588Z,34.17
2022-11-21T16:52:36.942Z,33.87
2022-11-21T16:55:05.547Z,34.20
2022-11-21T16:57:36.655Z,31.73
2022-11-21T17:00:06.124Z,33.40
2022-11-21T17:02:34.198Z,34.90
2022-11-21T17:05:02.153Z,33.00
2022-11-21T17:07:31.531Z,34.17
2022-11-21T17:10:00.978Z,34.70
2022-11-21T17:12:28.993Z,35.47
2022-11-21T17:14:57.018Z,40.63
2022-11-21T17:17:24.976Z,40.03
2022-11-21T17:19:54.604Z,39.83
2022-11-21T17:22:24.777Z,38.50
2022-11-21T17:24:53.496Z,35.27
2022-11-21T17:27:24.204Z,41.77
2022-11-21T17:29:52.185Z,43.00
2022-11-21T17:32:20.287Z,41.23
2022-11-21T17:34:48.276Z,39.20
2022-11-21T17:37:16.299Z,39.17
2022-11-21T17:39:44.312Z,43.73
2022-11-21T17:42:12.303Z,46.90
2022-11-21T17:44:41.626Z,43.97
2022-11-21T17:47:09.635Z,43.90
2022-11-21T17:49:37.960Z,41.17
2022-11-21T17:52:07.460Z,47.23
2022-11-21T17:54:35.598Z,44.00
2022-11-21T17:57:03.647Z,45.73
2022-11-21T17:59:31.842Z,46.90
2022-11-21T18:02:02.045Z,45.53
2022-11-21T18:04:30.300Z,44.17
2022-11-21T18:06:58.666Z,45.47
2022-11-21T18:09:26.923Z,45.30
2022-11-21T18:11:54.996Z,53.23
2022-11-21T18:14:22.965Z,53.97
2022-11-21T18:16:53.472Z,50.10
2022-11-21T18:19:24.196Z,46.20
2022-11-21T18:21:52.853Z,62.73
2022-11-21T18:24:20.819Z,53.77
2022-11-21T18:26:48.793Z,59.60
2022-11-21T18:32:04.972Z,63.60
2022-11-21T18:34:34.293Z,60.37
2022-11-21T18:37:02.251Z,57.23
2022-11-21T18:39:30.486Z,56.23
2022-11-21T18:41:58.680Z,52.90
2022-11-21T18:44:26.651Z,52.40
2022-11-21T18:46:54.633Z,48.07
2022-11-21T18:49:22.591Z,50.07
2022-11-21T18:51:52.081Z,56.90
2022-11-21T18:54:20.037Z,55.60
2022-11-21T18:56:48.039Z,55.93
2022-11-21T18:59:16.125Z,51.10
2022-11-21T19:01:44.325Z,53.30
2022-11-21T19:04:12.383Z,52.80
2022-11-21T19:06:40.381Z,48.97
2022-11-21T19:09:10.914Z,52.37
2022-11-21T19:11:38.915Z,50.17
2022-11-21T19:14:06.961Z,56.23
2022-11-21T19:16:35.019Z,77.50
2022-11-21T19:19:33.217Z,77.53
2022-11-21T19:21:54.041Z,85.00
2022-11-21T19:24:23.351Z,80.77
2022-11-21T19:26:51.372Z,87.70
2022-11-21T19:29:19.744Z,78.90
2022-11-21T19:31:47.853Z,74.60
2022-11-21T19:34:16.903Z,72.43
2022-11-21T19:36:45.110Z,67.47
2022-11-21T19:39:13.628Z,60.60
2022-11-21T19:41:42.976Z,64.70
2022-11-21T19:44:11.549Z,67.20
2022-11-21T19:46:41.056Z,67.97
2022-11-21T19:49:11.792Z,63.63
2022-11-21T19:51:42.050Z,76.07
2022-11-21T19:54:12.209Z,72.03
2022-11-21T19:56:41.867Z,68.93
2022-11-21T19:59:13.203Z,69.33
2022-11-21T20:01:41.450Z,74.57
2022-11-21T20:04:09.492Z,77.87
2022-11-21T20:06:39.100Z,83.73
2022-11-21T20:09:08.899Z,82.57
2022-11-21T20:11:37.140Z,76.30
2022-11-21T20:14:06.620Z,83.20
2022-11-21T20:16:36.444Z,80.47
2022-11-21T20:19:07.015Z,73.83
2022-11-21T20:21:35.496Z,73.43
2022-11-21T20:24:03.748Z,72.43
2022-11-21T20:26:32.594Z,71.37
2022-11-21T20:29:00.690Z,75.43
2022-11-21T20:31:31.859Z,77.57
2022-11-21T20:34:01.782Z,73.57
2022-11-21T20:36:31.180Z,77.33
2022-11-21T20:39:01.151Z,79.00
2022-11-21T20:41:31.336Z,84.27
2022-11-21T20:46:50.711Z,89.17
2022-11-21T20:49:18.971Z,82.33
2022-11-21T20:54:35.789Z,68.37
2022-11-21T20:57:03.793Z,68.77
2022-11-21T20:59:32.040Z,69.70
2022-11-21T21:02:01.745Z,63.20
2022-11-21T21:04:29.815Z,63.17
2022-11-21T21:06:57.776Z,66.43
2022-11-21T21:09:25.738Z,67.43
2022-11-21T21:11:53.796Z,70.00
2022-11-21T21:14:22.547Z,70.47
2022-11-21T21:16:51.197Z,67.53
2022-11-21T21:19:24.403Z,67.67
2022-11-21T21:21:52.470Z,64.47
2022-11-21T21:24:20.445Z,68.63
2022-11-21T21:26:49.733Z,64.43
2022-11-21T21:29:19.504Z,61.97
2022-11-21T21:31:51.461Z,62.33
2022-11-21T21:34:22.071Z,60.47
2022-11-21T21:36:50.746Z,64.43
2022-11-21T21:39:18.855Z,66.67
2022-11-21T21:41:47.728Z,65.93
2022-11-21T21:44:16.457Z,78.33
2022-11-21T21:46:44.970Z,72.27
2022-11-21T21:49:12.967Z,92.37
2022-11-21T21:51:42.422Z,86.50
2022-11-21T21:54:19.814Z,87.60
2022-11-21T21:56:48.539Z,82.17
2022-11-21T21:59:18.248Z,87.60
2022-11-21T22:01:46.544Z,81.23
2022-11-21T22:04:14.736Z,77.40
2022-11-21T22:06:44.144Z,77.00
2022-11-21T22:09:12.184Z,71.00
2022-11-21T22:11:40.612Z,74.13
2022-11-21T22:14:12.382Z,67.67
2022-11-21T22:16:40.667Z,71.17
2022-11-21T22:19:09.010Z,74.10
2022-11-21T22:21:38.465Z,69.10
2022-11-21T22:24:25.475Z,73.60
2022-11-21T22:26:55.036Z,72.63
2022-11-21T22:29:23.090Z,70.60
2022-11-21T22:31:51.878Z,83.43
2022-11-21T22:34:20.007Z,70.33
2022-11-21T22:36:48.121Z,70.87
2022-11-21T22:39:18.057Z,77.83
2022-11-21T22:41:46.155Z,69.57
2022-11-21T22:44:14.207Z,76.50
2022-11-21T22:46:42.174Z,76.63
2022-11-21T22:49:10.161Z,71.50
2022-11-21T22:51:38.189Z,73.33
2022-11-21T22:54:06.235Z,75.90
2022-11-21T22:56:35.585Z,75.97
2022-11-21T22:59:03.562Z,78.27
2022-11-21T23:01:34.056Z,78.03
2022-11-21T23:04:02.168Z,77.50
2022-11-21T23:06:30.134Z,80.07
2022-11-21T23:08:58.705Z,88.43
2022-11-21T23:11:28.817Z,77.93
2022-11-21T23:13:58.543Z,79.57
2022-11-21T23:16:26.967Z,73.03
2022-11-21T23:18:55.472Z,79.30
2022-11-21T23:21:24.290Z,80.80
2022-11-21T23:23:52.302Z,81.77
2022-11-21T23:26:20.340Z,90.63
2022-11-21T23:28:48.729Z,87.33
2022-11-21T23:31:18.247Z,100.43
2022-11-21T23:33:46.241Z,88.70
2022-11-21T23:36:14.189Z,94.87
2022-11-21T23:38:42.206Z,94.47
2022-11-21T23:41:10.476Z,104.70
2022-11-21T23:43:38.487Z,103.60
2022-11-21T23:46:06.480Z,107.63
2022-11-21T23:48:35.786Z,112.60
2022-11-21T23:51:03.761Z,105.40
2022-11-21T23:53:31.780Z,107.40
2022-11-21T23:55:59.803Z,108.50
2022-11-21T23:58:27.918Z,102.77
